createdAt,value
2019-01-23T00:00:48.136Z,100180.39
2019-01-23T00:03:52.056Z,100173.48
2019-01-23T00:06:55.852Z,100179.20
2019-01-23T00:09:59.743Z,100178.23
2019-01-23T00:13:03.651Z,100173.05
2019-01-23T00:16:07.581Z,100171.23
2019-01-23T00:19:11.577Z,100175.13
2019-01-23T00:22:15.515Z,100171.60
2019-01-23T00:25:19.309Z,100173.34
2019-01-23T00:28:23.163Z,100165.92
2019-01-23T00:31:27.087Z,100170.78
2019-01-23T00:34:30.934Z,100161.22
2019-01-23T00:37:34.762Z,100162.06
2019-01-23T00:40:38.566Z,100161.99
2019-01-23T00:43:42.417Z,100161.18
2019-01-23T00:46:46.264Z,100162.00
2019-01-23T00:49:50.074Z,100160.18
2019-01-23T00:52:53.935Z,100157.98
2019-01-23T00:55:57.771Z,100157.51
2019-01-23T00:59:01.622Z,100160.92
2019-01-23T01:02:06.171Z,100155.28
2019-01-23T01:05:10.432Z,100152.24
2019-01-23T01:08:14.261Z,100152.24
2019-01-23T01:11:18.207Z,100145.31
2019-01-23T01:14:22.057Z,100147.05
2019-01-23T01:17:25.951Z,100151.35
2019-01-23T01:20:29.943Z,100151.80
2019-01-23T01:23:33.851Z,100143.12
2019-01-23T01:26:37.697Z,100143.08
2019-01-23T01:29:41.531Z,100148.64
2019-01-23T01:32:45.532Z,100148.60
2019-01-23T01:35:49.398Z,100145.97
2019-01-23T01:38:53.288Z,100148.12
2019-01-23T01:41:57.134Z,100140.17
2019-01-23T01:45:01.028Z,100145.32
2019-01-23T01:48:05.365Z,100145.28
2019-01-23T01:51:09.204Z,100146.54
2019-01-23T01:54:13.025Z,100153.88
2019-01-23T01:57:17.029Z,100148.69
2019-01-23T02:00:22.987Z,100150.83
2019-01-23T02:03:26.817Z,100151.68
2019-01-23T02:06:30.785Z,100156.39
2019-01-23T02:09:35.583Z,100151.56
2019-01-23T02:12:39.597Z,100149.77
2019-01-23T02:15:43.438Z,100148.48
2019-01-23T02:18:47.315Z,100144.99
2019-01-23T02:21:51.210Z,100145.39
2019-01-23T02:24:55.039Z,100144.50
2019-01-23T02:27:59.015Z,100146.28
2019-01-23T02:31:02.926Z,100143.65
2019-01-23T02:34:06.874Z,100148.76
2019-01-23T02:37:10.725Z,100140.12
2019-01-23T02:40:17.207Z,100140.53
2019-01-23T02:43:21.120Z,100140.48
2019-01-23T02:46:24.998Z,100139.99
2019-01-23T02:49:28.782Z,100145.18
2019-01-23T02:52:32.608Z,100140.84
2019-01-23T02:55:36.416Z,100135.13
2019-01-23T02:58:40.279Z,100140.75
2019-01-23T03:01:44.124Z,100142.05
2019-01-23T03:04:47.911Z,100142.86
2019-01-23T03:07:51.828Z,100141.08
2019-01-23T03:10:55.652Z,100138.93
2019-01-23T03:13:59.573Z,100138.53
2019-01-23T03:17:03.538Z,100138.61
2019-01-23T03:20:09.152Z,100139.06
2019-01-23T03:23:12.975Z,100138.66
2019-01-23T03:26:16.815Z,100140.80
2019-01-23T03:29:24.570Z,100138.20
2019-01-23T03:32:26.209Z,100140.35
2019-01-23T03:35:30.122Z,100138.16
2019-01-23T03:38:34.121Z,100134.64
2019-01-23T03:41:38.119Z,100139.78
2019-01-23T03:44:41.998Z,100132.00
2019-01-23T03:47:48.149Z,100138.03
2019-01-23T03:50:51.917Z,100133.70
2019-01-23T03:53:55.699Z,100138.87
2019-01-23T03:56:59.626Z,100138.44
2019-01-23T04:00:04.138Z,100138.39
2019-01-23T04:03:08.142Z,100147.91
2019-01-23T04:06:12.019Z,100141.87
2019-01-23T04:09:15.840Z,100153.94
2019-01-23T04:12:19.711Z,100165.61
2019-01-23T04:15:23.592Z,100170.78
2019-01-23T04:18:27.564Z,100171.58
2019-01-23T04:21:31.444Z,100166.00
2019-01-23T04:24:35.261Z,100162.96
2019-01-23T04:27:39.141Z,100164.66
2019-01-23T04:30:42.958Z,100164.12
2019-01-23T04:33:46.763Z,100167.16
2019-01-23T04:36:50.572Z,100161.94
2019-01-23T04:39:54.370Z,100153.21
2019-01-23T04:42:58.275Z,100152.32
2019-01-23T04:46:02.097Z,100155.80
2019-01-23T04:49:05.987Z,100155.75
2019-01-23T04:52:15.194Z,100163.52
2019-01-23T04:55:19.213Z,100162.18
2019-01-23T04:58:23.017Z,100168.17
2019-01-23T05:01:26.976Z,100169.42
2019-01-23T05:04:30.864Z,100169.37
2019-01-23T05:07:34.665Z,100169.27
2019-01-23T05:10:38.490Z,100173.55
2019-01-23T05:13:42.301Z,100177.03
2019-01-23T05:16:46.123Z,100180.52
2019-01-23T05:19:49.948Z,100182.27
2019-01-23T05:22:53.901Z,100186.60
2019-01-23T05:25:57.859Z,100179.17
2019-01-23T05:29:01.697Z,100188.19
2019-01-23T05:32:05.642Z,100191.08
2019-01-23T05:35:09.635Z,100190.23
2019-01-23T05:38:13.535Z,100191.52
2019-01-23T05:41:17.363Z,100190.58
2019-01-23T05:44:22.301Z,100189.67
2019-01-23T05:47:26.172Z,100189.63
2019-01-23T05:50:30.092Z,100194.34
2019-01-23T05:53:33.901Z,100195.59
2019-01-23T05:56:37.789Z,100206.00
2019-01-23T05:59:41.624Z,100205.55
2019-01-23T06:02:45.565Z,100204.26
2019-01-23T06:05:49.520Z,100207.66
2019-01-23T06:08:53.371Z,100221.45
2019-01-23T06:11:57.169Z,100213.33
2019-01-23T06:15:01.094Z,100212.48
2019-01-23T06:18:05.054Z,100219.85
2019-01-23T06:21:08.950Z,100221.55
2019-01-23T06:24:12.817Z,100213.28
2019-01-23T06:27:16.747Z,100218.11
2019-01-23T06:30:23.079Z,100218.50
2019-01-23T06:33:26.882Z,100216.31
2019-01-23T06:36:30.790Z,100217.66
2019-01-23T06:39:34.676Z,100227.17
2019-01-23T06:42:38.678Z,100222.84
2019-01-23T06:45:42.482Z,100211.24
2019-01-23T06:48:46.302Z,100225.05
2019-01-23T06:51:50.129Z,100221.59
2019-01-23T06:54:53.956Z,100233.65
2019-01-23T06:57:57.762Z,100223.69
2019-01-23T07:01:01.592Z,100226.67
2019-01-23T07:04:05.631Z,100235.33
2019-01-23T07:07:09.458Z,100227.52
2019-01-23T07:10:18.912Z,100228.75
2019-01-23T07:13:22.787Z,100238.16
2019-01-23T07:16:26.606Z,100236.81
2019-01-23T07:19:30.434Z,100238.95
2019-01-23T07:22:34.233Z,100243.67
2019-01-23T07:25:38.120Z,100248.79
2019-01-23T07:28:41.922Z,100257.41
2019-01-23T07:31:45.823Z,100265.63
2019-01-23T07:34:49.715Z,100269.97
2019-01-23T07:37:53.628Z,100268.28
2019-01-23T07:40:57.537Z,100281.28
2019-01-23T07:44:01.378Z,100275.77
2019-01-23T07:47:05.258Z,100273.40
2019-01-23T07:50:10.402Z,100280.33
2019-01-23T07:53:14.280Z,100282.13
2019-01-23T07:56:18.108Z,100282.97
2019-01-23T07:59:21.994Z,100286.08
2019-01-23T08:02:25.801Z,100286.62
2019-01-23T08:05:29.672Z,100292.88
2019-01-23T08:08:33.553Z,100289.84
2019-01-23T08:11:37.433Z,100298.91
2019-01-23T08:14:42.205Z,100302.01
2019-01-23T08:17:46.104Z,100303.39
2019-01-23T08:20:50.343Z,100306.80
2019-01-23T08:23:54.156Z,100305.50
2019-01-23T08:26:58.047Z,100309.39
2019-01-23T08:30:01.854Z,100309.05
2019-01-23T08:33:06.043Z,100321.16
2019-01-23T08:36:09.981Z,100320.81
2019-01-23T08:39:13.908Z,100318.22
2019-01-23T08:42:17.702Z,100325.20
2019-01-23T08:45:21.700Z,100323.12
2019-01-23T08:48:25.509Z,100327.55
2019-01-23T08:51:29.333Z,100333.30
2019-01-23T08:54:33.134Z,100336.85
2019-01-23T08:57:36.957Z,100343.88
2019-01-23T09:00:45.777Z,100353.52
2019-01-23T09:03:46.473Z,100350.06
2019-01-23T09:06:50.271Z,100356.11
2019-01-23T09:09:54.085Z,100353.01
2019-01-23T09:12:57.968Z,100356.16
2019-01-23T09:16:01.857Z,100361.05
2019-01-23T09:19:05.749Z,100349.82
2019-01-23T09:22:09.622Z,100353.82
2019-01-23T09:25:15.908Z,100347.88
2019-01-23T09:28:19.731Z,100355.77
2019-01-23T09:31:58.047Z,100350.68
2019-01-23T09:35:22.580Z,100357.27
2019-01-23T09:39:00.566Z,100351.68
2019-01-23T09:42:41.850Z,100353.07
2019-01-23T09:46:45.174Z,100354.50
2019-01-23T09:50:02.069Z,100363.64
2019-01-23T09:53:14.472Z,100366.24
2019-01-23T09:56:19.361Z,100370.83
2019-01-23T09:59:23.176Z,100362.45
2019-01-23T10:02:26.985Z,100360.26
2019-01-23T10:05:30.802Z,100368.89
2019-01-23T10:08:34.696Z,100360.66
2019-01-23T10:11:38.527Z,100365.89
2019-01-23T10:14:42.381Z,100378.88
2019-01-23T10:17:46.267Z,100372.78
2019-01-23T10:20:50.200Z,100380.22
2019-01-23T10:23:53.994Z,100376.92
2019-01-23T10:26:57.963Z,100377.92
2019-01-23T10:30:01.875Z,100378.05
2019-01-23T10:33:05.817Z,100371.97
2019-01-23T10:36:09.840Z,100377.56
2019-01-23T10:39:13.657Z,100375.33
2019-01-23T10:42:17.618Z,100379.61
2019-01-23T10:45:21.577Z,100383.70
2019-01-23T10:48:25.400Z,100378.24
2019-01-23T10:51:29.296Z,100390.52
2019-01-23T10:54:33.153Z,100391.36
2019-01-23T10:57:37.115Z,100387.52
2019-01-23T11:00:41.115Z,100385.02
2019-01-23T11:03:44.988Z,100382.91
2019-01-23T11:06:48.809Z,100379.99
2019-01-23T11:09:52.695Z,100386.58
2019-01-23T11:12:56.515Z,100378.83
2019-01-23T11:16:00.482Z,100386.13
2019-01-23T11:19:04.569Z,100387.47
2019-01-23T11:22:08.447Z,100387.11
2019-01-23T11:25:12.835Z,100384.78
2019-01-23T11:28:16.791Z,100383.13
2019-01-23T11:31:20.717Z,100388.41
2019-01-23T11:34:24.660Z,100388.00
2019-01-23T11:37:28.560Z,100388.45
2019-01-23T11:40:32.607Z,100396.24
2019-01-23T11:43:36.559Z,100395.93
2019-01-23T11:46:40.581Z,100392.52
2019-01-23T11:49:44.400Z,100404.30
2019-01-23T11:52:49.409Z,100391.30
2019-01-23T11:55:53.210Z,100393.50
2019-01-23T11:58:57.023Z,100394.27
2019-01-23T12:02:00.993Z,100396.83
2019-01-23T12:05:06.084Z,100394.22
2019-01-23T12:08:10.161Z,100395.57
2019-01-23T12:11:14.091Z,100392.20
2019-01-23T12:14:17.914Z,100390.13
2019-01-23T12:17:21.731Z,100391.55
2019-01-23T12:20:25.708Z,100390.58
2019-01-23T12:23:29.533Z,100389.77
2019-01-23T12:26:33.444Z,100397.11
2019-01-23T12:29:37.286Z,100397.19
2019-01-23T12:32:41.197Z,100397.68
2019-01-23T12:35:45.087Z,100396.87
2019-01-23T12:38:48.919Z,100401.66
2019-01-23T12:41:52.925Z,100390.86
2019-01-23T12:44:56.843Z,100396.54
2019-01-23T12:48:00.848Z,100392.56
2019-01-23T12:51:04.834Z,100390.41
2019-01-23T12:54:08.747Z,100394.34
2019-01-23T12:57:12.638Z,100392.76
2019-01-23T13:00:24.802Z,100396.73
2019-01-23T13:03:28.772Z,100396.73
2019-01-23T13:06:32.837Z,100401.52
2019-01-23T13:09:36.718Z,100402.45
2019-01-23T13:12:40.806Z,100399.03
2019-01-23T13:15:44.606Z,100395.20
2019-01-23T13:18:48.421Z,100393.91
2019-01-23T13:21:52.252Z,100394.83
2019-01-23T13:24:56.053Z,100393.16
2019-01-23T13:28:01.750Z,100401.81
2019-01-23T13:31:05.719Z,100399.66
2019-01-23T13:34:09.588Z,100397.09
2019-01-23T13:37:13.496Z,100394.49
2019-01-23T13:40:37.026Z,100401.41
2019-01-23T13:43:40.843Z,100396.61
2019-01-23T13:46:44.853Z,100400.96
2019-01-23T13:49:48.662Z,100405.72
2019-01-23T13:52:52.558Z,100409.21
2019-01-23T13:55:56.507Z,100402.26
2019-01-23T13:59:00.403Z,100406.20
2019-01-23T14:02:04.387Z,100414.52
2019-01-23T14:05:09.163Z,100406.23
2019-01-23T14:08:13.129Z,100412.30
2019-01-23T14:11:16.959Z,100414.86
2019-01-23T14:14:20.774Z,100413.59
2019-01-23T14:17:24.613Z,100411.84
2019-01-23T14:20:28.803Z,100404.48
2019-01-23T14:23:32.625Z,100407.56
2019-01-23T14:26:36.427Z,100407.09
2019-01-23T14:29:40.336Z,100413.63
2019-01-23T14:32:44.211Z,100421.47
2019-01-23T14:35:48.396Z,100416.71
2019-01-23T14:38:52.210Z,100420.50
2019-01-23T14:41:56.154Z,100421.84
2019-01-23T14:44:59.963Z,100426.49
2019-01-23T14:48:04.171Z,100426.41
2019-01-23T14:51:08.041Z,100428.13
2019-01-23T14:54:11.848Z,100425.94
2019-01-23T14:57:15.757Z,100434.59
2019-01-23T15:00:25.066Z,100436.70
2019-01-23T15:03:28.913Z,100446.25
2019-01-23T15:06:32.783Z,100444.88
2019-01-23T15:09:36.605Z,100441.38
2019-01-23T15:12:40.536Z,100449.14
2019-01-23T15:15:44.437Z,100450.04
2019-01-23T15:18:48.296Z,100455.69
2019-01-23T15:21:52.116Z,100459.09
2019-01-23T15:24:56.033Z,100458.61
2019-01-23T15:27:59.972Z,100470.27
2019-01-23T15:31:03.973Z,100471.57
2019-01-23T15:34:08.162Z,100472.34
2019-01-23T15:37:11.965Z,100473.64
2019-01-23T15:40:18.941Z,100477.09
2019-01-23T15:43:22.758Z,100484.00
2019-01-23T15:46:26.643Z,100489.55
2019-01-23T15:49:30.611Z,100490.31
2019-01-23T15:52:34.395Z,100497.26
2019-01-23T15:55:38.371Z,100501.07
2019-01-23T15:58:42.238Z,100502.83
2019-01-23T16:01:46.136Z,100503.76
2019-01-23T16:04:49.986Z,100510.98
2019-01-23T16:07:53.866Z,100512.19
2019-01-23T16:10:57.771Z,100513.44
2019-01-23T16:14:01.587Z,100514.59
2019-01-23T16:17:05.597Z,100530.19
2019-01-23T16:20:10.532Z,100523.59
2019-01-23T16:23:14.493Z,100531.28
2019-01-23T16:26:18.386Z,100541.67
2019-01-23T16:29:22.231Z,100547.62
2019-01-23T16:32:31.436Z,100546.67
2019-01-23T16:35:38.494Z,100555.77
2019-01-23T16:38:38.051Z,100554.52
2019-01-23T16:41:41.878Z,100565.36
2019-01-23T16:44:45.773Z,100565.86
2019-01-23T16:47:49.858Z,100569.80
2019-01-23T16:50:53.732Z,100574.28
2019-01-23T16:53:57.559Z,100574.48
2019-01-23T16:57:01.429Z,100569.23
2019-01-23T17:00:07.700Z,100574.88
2019-01-23T17:03:12.183Z,100581.38
2019-01-23T17:06:16.097Z,100584.41
2019-01-23T17:09:20.053Z,100590.41
2019-01-23T17:12:23.881Z,100585.50
2019-01-23T17:15:27.860Z,100586.39
2019-01-23T17:18:31.749Z,100587.73
2019-01-23T17:21:35.546Z,100594.18
2019-01-23T17:24:39.374Z,100589.61
2019-01-23T17:27:43.260Z,100594.80
2019-01-23T17:30:47.166Z,100599.09
2019-01-23T17:33:51.038Z,100603.89
2019-01-23T17:36:54.953Z,100610.78
2019-01-23T17:39:58.749Z,100612.53
2019-01-23T17:43:02.675Z,100614.27
2019-01-23T17:46:06.535Z,100619.08
2019-01-23T17:49:10.431Z,100622.52
2019-01-23T17:52:14.228Z,100621.67
2019-01-23T17:55:21.385Z,100622.52
2019-01-23T17:58:25.270Z,100624.14
2019-01-23T18:01:29.229Z,100623.59
2019-01-23T18:04:33.071Z,100619.63
2019-01-23T18:07:37.070Z,100627.42
2019-01-23T18:10:40.858Z,100632.16
2019-01-23T18:13:44.665Z,100635.09
2019-01-23T18:16:48.533Z,100639.38
2019-01-23T18:19:52.357Z,100644.47
2019-01-23T18:22:56.357Z,100639.55
2019-01-23T18:26:00.238Z,100640.72
2019-01-23T18:29:04.209Z,100650.09
2019-01-23T18:32:09.930Z,100653.97
2019-01-23T18:35:38.437Z,100650.07
2019-01-23T18:38:57.266Z,100651.77
2019-01-23T18:42:33.786Z,100654.35
2019-01-23T18:46:22.611Z,100652.09
2019-01-23T18:50:12.502Z,100659.81
2019-01-23T18:53:16.487Z,100656.59
2019-01-23T18:56:20.359Z,100659.84
2019-01-23T18:59:24.166Z,100657.61
2019-01-23T19:02:28.062Z,100659.75
2019-01-23T19:05:31.950Z,100666.63
2019-01-23T19:08:35.759Z,100672.16
2019-01-23T19:11:39.647Z,100675.20
2019-01-23T19:14:43.722Z,100672.55
2019-01-23T19:17:47.665Z,100673.23
2019-01-23T19:20:51.604Z,100673.55
2019-01-23T19:23:55.498Z,100671.67
2019-01-23T19:26:59.439Z,100677.19
2019-01-23T19:30:09.183Z,100678.36
2019-01-23T19:33:13.506Z,100670.83
2019-01-23T19:36:15.446Z,100675.48
2019-01-23T19:39:19.310Z,100678.84
2019-01-23T19:42:23.132Z,100681.63
2019-01-23T19:45:26.943Z,100685.03
2019-01-23T19:48:30.839Z,100688.41
2019-01-23T19:51:34.796Z,100684.44
2019-01-23T19:54:38.681Z,100686.95
2019-01-23T19:57:42.475Z,100686.76
2019-01-23T20:00:46.356Z,100693.16
2019-01-23T20:03:50.165Z,100700.47
2019-01-23T20:06:54.039Z,100698.34
2019-01-23T20:09:57.927Z,100712.20
2019-01-23T20:13:01.797Z,100717.30
2019-01-23T20:16:05.663Z,100716.22
2019-01-23T20:19:12.997Z,100714.33
2019-01-23T20:22:16.826Z,100720.59
2019-01-23T20:25:22.825Z,100713.73
2019-01-23T20:28:26.750Z,100719.13
2019-01-23T20:31:30.565Z,100712.49
2019-01-23T20:34:34.468Z,100719.30
2019-01-23T20:37:38.275Z,100723.53
2019-01-23T20:40:42.161Z,100731.53
2019-01-23T20:43:45.968Z,100723.78
2019-01-23T20:46:49.870Z,100737.57
2019-01-23T20:49:53.692Z,100741.45
2019-01-23T20:52:57.504Z,100738.17
2019-01-23T20:56:01.338Z,100735.36
2019-01-23T20:59:05.522Z,100743.34
2019-01-23T21:02:09.473Z,100742.20
2019-01-23T21:05:13.373Z,100752.70
2019-01-23T21:08:17.224Z,100753.70
2019-01-23T21:11:21.043Z,100752.86
2019-01-23T21:14:24.950Z,100757.20
2019-01-23T21:17:28.859Z,100758.96
2019-01-23T21:20:35.198Z,100765.13
2019-01-23T21:23:39.029Z,100760.83
2019-01-23T21:26:42.903Z,100766.93
2019-01-23T21:29:46.743Z,100766.47
2019-01-23T21:32:50.538Z,100763.42
2019-01-23T21:35:54.357Z,100764.28
2019-01-23T21:38:58.179Z,100767.80
2019-01-23T21:42:02.061Z,100765.95
2019-01-23T21:45:07.406Z,100762.98
2019-01-23T21:48:11.212Z,100762.59
2019-01-23T21:51:15.134Z,100766.93
2019-01-23T21:54:18.939Z,100767.84
2019-01-23T21:57:22.831Z,100767.84
2019-01-23T22:00:38.527Z,100772.59
2019-01-23T22:03:49.057Z,100778.16
2019-01-23T22:06:47.957Z,100779.89
2019-01-23T22:09:51.856Z,100781.97
2019-01-23T22:12:55.653Z,100773.66
2019-01-23T22:15:59.639Z,100775.35
2019-01-23T22:19:03.418Z,100778.33
2019-01-23T22:22:08.046Z,100776.11
2019-01-23T22:25:13.192Z,100786.02
2019-01-23T22:28:17.005Z,100791.58
2019-01-23T22:31:20.920Z,100792.50
2019-01-23T22:34:24.768Z,100792.87
2019-01-23T22:37:28.573Z,100801.95
2019-01-23T22:40:32.380Z,100807.13
2019-01-23T22:43:36.185Z,100809.72
2019-01-23T22:46:40.016Z,100809.66
2019-01-23T22:49:43.914Z,100812.23
2019-01-23T22:52:48.078Z,100820.84
2019-01-23T22:55:51.902Z,100819.86
2019-01-23T22:58:55.734Z,100816.73
2019-01-23T23:01:59.548Z,100816.58
2019-01-23T23:05:03.433Z,100823.81
2019-01-23T23:08:07.992Z,100828.07
2019-01-23T23:11:11.900Z,100835.72
2019-01-23T23:14:15.730Z,100836.09
2019-01-23T23:17:19.603Z,100844.24
2019-01-23T23:20:23.586Z,100844.98
2019-01-23T23:23:27.474Z,100848.41
2019-01-23T23:26:31.316Z,100856.58
2019-01-23T23:29:35.205Z,100859.61
2019-01-23T23:32:39.107Z,100859.98
2019-01-23T23:35:42.915Z,100857.55
2019-01-23T23:38:46.805Z,100861.49
2019-01-23T23:41:50.618Z,100861.86
2019-01-23T23:44:54.453Z,100870.03
2019-01-23T23:47:58.285Z,100869.11
2019-01-23T23:51:02.196Z,100868.64
2019-01-23T23:54:06.175Z,100877.27
2019-01-23T23:57:10.003Z,100877.62
